sensor_id;sensor_type;location;lat;lon;timestamp;P1;durP1;ratioP1;P2;durP2;ratioP2
48975;SDS011;34791;52.752;8.346;2023-03-04T00:02:08;23.27;;;3.20;;
48975;SDS011;34791;52.752;8.346;2023-03-04T00:04:34;15.07;;;2.17;;
48975;SDS011;34791;52.752;8.346;2023-03-04T00:06:59;22.77;;;2.87;;
48975;SDS011;34791;52.752;8.346;2023-03-04T00:09:24;15.93;;;2.60;;
48975;SDS011;34791;52.752;8.346;2023-03-04T00:11:50;16.23;;;2.37;;
48975;SDS011;34791;52.752;8.346;2023-03-04T00:14:17;13.97;;;2.00;;
48975;SDS011;34791;52.752;8.346;2023-03-04T00:16:43;11.50;;;2.07;;
48975;SDS011;34791;52.752;8.346;2023-03-04T00:19:09;17.07;;;2.57;;
48975;SDS011;34791;52.752;8.346;2023-03-04T00:21:35;19.03;;;2.77;;
48975;SDS011;34791;52.752;8.346;2023-03-04T00:24:00;10.97;;;1.97;;
48975;SDS011;34791;52.752;8.346;2023-03-04T00:26:26;12.20;;;2.10;;
48975;SDS011;34791;52.752;8.346;2023-03-04T00:28:51;18.43;;;2.23;;
48975;SDS011;34791;52.752;8.346;2023-03-04T00:31:16;15.63;;;2.07;;
48975;SDS011;34791;52.752;8.346;2023-03-04T00:33:42;16.10;;;2.10;;
48975;SDS011;34791;52.752;8.346;2023-03-04T00:36:08;16.93;;;2.57;;
48975;SDS011;34791;52.752;8.346;2023-03-04T00:38:34;16.23;;;1.97;;
48975;SDS011;34791;52.752;8.346;2023-03-04T00:40:59;11.77;;;1.93;;
48975;SDS011;34791;52.752;8.346;2023-03-04T00:43:25;19.17;;;2.00;;
48975;SDS011;34791;52.752;8.346;2023-03-04T00:45:50;10.43;;;2.07;;
48975;SDS011;34791;52.752;8.346;2023-03-04T00:48:15;15.00;;;2.43;;
48975;SDS011;34791;52.752;8.346;2023-03-04T00:50:41;13.13;;;2.87;;
48975;SDS011;34791;52.752;8.346;2023-03-04T00:53:08;17.40;;;2.43;;
48975;SDS011;34791;52.752;8.346;2023-03-04T00:55:34;15.97;;;2.30;;
48975;SDS011;34791;52.752;8.346;2023-03-04T00:57:59;13.83;;;1.67;;
48975;SDS011;34791;52.752;8.346;2023-03-04T01:00:25;13.23;;;1.67;;
48975;SDS011;34791;52.752;8.346;2023-03-04T01:02:50;19.80;;;2.80;;
48975;SDS011;34791;52.752;8.346;2023-03-04T01:05:16;14.53;;;1.87;;
48975;SDS011;34791;52.752;8.346;2023-03-04T01:07:41;13.50;;;2.00;;
48975;SDS011;34791;52.752;8.346;2023-03-04T01:10:07;20.20;;;2.60;;
48975;SDS011;34791;52.752;8.346;2023-03-04T01:12:34;11.13;;;1.83;;
48975;SDS011;34791;52.752;8.346;2023-03-04T01:15:00;19.60;;;2.50;;
48975;SDS011;34791;52.752;8.346;2023-03-04T01:17:25;14.23;;;2.20;;
48975;SDS011;34791;52.752;8.346;2023-03-04T01:19:51;15.10;;;2.10;;
48975;SDS011;34791;52.752;8.346;2023-03-04T01:22:16;14.33;;;1.83;;
48975;SDS011;34791;52.752;8.346;2023-03-04T01:24:43;15.07;;;2.10;;
48975;SDS011;34791;52.752;8.346;2023-03-04T01:27:08;14.50;;;2.17;;
48975;SDS011;34791;52.752;8.346;2023-03-04T01:29:34;10.47;;;1.87;;
48975;SDS011;34791;52.752;8.346;2023-03-04T01:32:02;9.73;;;1.50;;
48975;SDS011;34791;52.752;8.346;2023-03-04T01:34:28;10.50;;;1.70;;
48975;SDS011;34791;52.752;8.346;2023-03-04T01:36:53;16.03;;;2.17;;
48975;SDS011;34791;52.752;8.346;2023-03-04T01:39:19;14.17;;;2.33;;
48975;SDS011;34791;52.752;8.346;2023-03-04T01:41:44;16.47;;;2.07;;
48975;SDS011;34791;52.752;8.346;2023-03-04T01:44:10;15.80;;;1.63;;
48975;SDS011;34791;52.752;8.346;2023-03-04T01:46:36;18.67;;;2.67;;
48975;SDS011;34791;52.752;8.346;2023-03-04T01:49:02;16.23;;;2.43;;
48975;SDS011;34791;52.752;8.346;2023-03-04T01:51:28;15.13;;;2.00;;
48975;SDS011;34791;52.752;8.346;2023-03-04T01:53:55;12.17;;;2.10;;
48975;SDS011;34791;52.752;8.346;2023-03-04T01:56:22;15.40;;;2.10;;
48975;SDS011;34791;52.752;8.346;2023-03-04T02:01:56;12.83;;;1.60;;
48975;SDS011;34791;52.752;8.346;2023-03-04T02:04:28;16.27;;;2.70;;
48975;SDS011;34791;52.752;8.346;2023-03-04T02:06:56;13.50;;;1.57;;
48975;SDS011;34791;52.752;8.346;2023-03-04T02:09:23;9.10;;;2.33;;
48975;SDS011;34791;52.752;8.346;2023-03-04T02:11:49;9.17;;;1.50;;
48975;SDS011;34791;52.752;8.346;2023-03-04T02:14:15;14.70;;;2.07;;
48975;SDS011;34791;52.752;8.346;2023-03-04T02:16:41;9.90;;;1.60;;
48975;SDS011;34791;52.752;8.346;2023-03-04T02:19:12;10.00;;;1.77;;
48975;SDS011;34791;52.752;8.346;2023-03-04T02:21:57;12.87;;;1.97;;
48975;SDS011;34791;52.752;8.346;2023-03-04T02:27:11;13.47;;;2.30;;
48975;SDS011;34791;52.752;8.346;2023-03-04T02:29:37;13.63;;;2.00;;
48975;SDS011;34791;52.752;8.346;2023-03-04T02:32:02;9.37;;;1.87;;
48975;SDS011;34791;52.752;8.346;2023-03-04T02:34:34;13.90;;;1.80;;
48975;SDS011;34791;52.752;8.346;2023-03-04T02:37:00;12.30;;;1.73;;
48975;SDS011;34791;52.752;8.346;2023-03-04T02:41:57;12.53;;;2.20;;
48975;SDS011;34791;52.752;8.346;2023-03-04T02:44:27;11.13;;;1.50;;
48975;SDS011;34791;52.752;8.346;2023-03-04T02:46:55;8.95;;;1.20;;
48975;SDS011;34791;52.752;8.346;2023-03-04T02:49:21;9.73;;;1.77;;
48975;SDS011;34791;52.752;8.346;2023-03-04T02:52:30;9.70;;;1.83;;
48975;SDS011;34791;52.752;8.346;2023-03-04T02:54:39;9.60;;;1.65;;
48975;SDS011;34791;52.752;8.346;2023-03-04T02:57:09;11.27;;;1.77;;
48975;SDS011;34791;52.752;8.346;2023-03-04T02:59:36;9.33;;;1.60;;
48975;SDS011;34791;52.752;8.346;2023-03-04T03:02:02;10.63;;;2.00;;
48975;SDS011;34791;52.752;8.346;2023-03-04T03:04:28;12.83;;;2.07;;
48975;SDS011;34791;52.752;8.346;2023-03-04T03:06:54;8.13;;;1.40;;
48975;SDS011;34791;52.752;8.346;2023-03-04T03:09:19;10.23;;;1.57;;
48975;SDS011;34791;52.752;8.346;2023-03-04T03:11:45;9.27;;;1.63;;
48975;SDS011;34791;52.752;8.346;2023-03-04T03:14:10;9.80;;;1.60;;
48975;SDS011;34791;52.752;8.346;2023-03-04T03:16:36;10.13;;;1.70;;
48975;SDS011;34791;52.752;8.346;2023-03-04T03:19:01;9.13;;;1.70;;
48975;SDS011;34791;52.752;8.346;2023-03-04T03:21:27;9.57;;;1.70;;
48975;SDS011;34791;52.752;8.346;2023-03-04T03:23:52;16.70;;;2.00;;
48975;SDS011;34791;52.752;8.346;2023-03-04T03:26:17;10.63;;;1.93;;
48975;SDS011;34791;52.752;8.346;2023-03-04T03:28:43;7.17;;;1.70;;
48975;SDS011;34791;52.752;8.346;2023-03-04T03:31:09;8.80;;;1.73;;
48975;SDS011;34791;52.752;8.346;2023-03-04T03:33:34;12.93;;;1.40;;
48975;SDS011;34791;52.752;8.346;2023-03-04T03:36:00;6.97;;;1.33;;
48975;SDS011;34791;52.752;8.346;2023-03-04T03:38:25;14.07;;;2.10;;
48975;SDS011;34791;52.752;8.346;2023-03-04T03:40:51;9.03;;;1.73;;
48975;SDS011;34791;52.752;8.346;2023-03-04T03:43:17;9.47;;;1.90;;
48975;SDS011;34791;52.752;8.346;2023-03-04T03:45:43;14.27;;;1.97;;
48975;SDS011;34791;52.752;8.346;2023-03-04T03:48:08;9.50;;;1.57;;
48975;SDS011;34791;52.752;8.346;2023-03-04T03:50:34;17.87;;;1.90;;
48975;SDS011;34791;52.752;8.346;2023-03-04T03:52:59;8.37;;;1.40;;
48975;SDS011;34791;52.752;8.346;2023-03-04T03:55:25;10.27;;;1.60;;
48975;SDS011;34791;52.752;8.346;2023-03-04T03:57:51;8.97;;;1.80;;
48975;SDS011;34791;52.752;8.346;2023-03-04T04:00:16;13.37;;;2.10;;
48975;SDS011;34791;52.752;8.346;2023-03-04T04:02:42;9.63;;;1.87;;
48975;SDS011;34791;52.752;8.346;2023-03-04T04:05:07;8.47;;;1.40;;
48975;SDS011;34791;52.752;8.346;2023-03-04T04:07:34;9.43;;;1.60;;
48975;SDS011;34791;52.752;8.346;2023-03-04T04:10:01;13.37;;;1.77;;
48975;SDS011;34791;52.752;8.346;2023-03-04T04:12:26;8.97;;;1.80;;
48975;SDS011;34791;52.752;8.346;2023-03-04T04:14:51;13.80;;;1.40;;
48975;SDS011;34791;52.752;8.346;2023-03-04T04:17:17;9.30;;;1.60;;
48975;SDS011;34791;52.752;8.346;2023-03-04T04:19:42;8.80;;;2.13;;
48975;SDS011;34791;52.752;8.346;2023-03-04T04:22:12;9.63;;;1.50;;
48975;SDS011;34791;52.752;8.346;2023-03-04T04:24:39;8.50;;;1.73;;
48975;SDS011;34791;52.752;8.346;2023-03-04T04:27:04;11.43;;;2.10;;
48975;SDS011;34791;52.752;8.346;2023-03-04T04:29:30;7.90;;;1.67;;
48975;SDS011;34791;52.752;8.346;2023-03-04T04:31:55;11.67;;;1.50;;
48975;SDS011;34791;52.752;8.346;2023-03-04T04:34:21;9.70;;;1.63;;
48975;SDS011;34791;52.752;8.346;2023-03-04T04:36:47;9.90;;;1.67;;
48975;SDS011;34791;52.752;8.346;2023-03-04T04:39:12;8.30;;;1.67;;
48975;SDS011;34791;52.752;8.346;2023-03-04T04:41:39;8.63;;;1.93;;
48975;SDS011;34791;52.752;8.346;2023-03-04T04:44:06;13.80;;;1.93;;
48975;SDS011;34791;52.752;8.346;2023-03-04T04:46:32;11.17;;;1.87;;
48975;SDS011;34791;52.752;8.346;2023-03-04T04:48:57;10.63;;;1.60;;
48975;SDS011;34791;52.752;8.346;2023-03-04T04:51:23;9.40;;;1.50;;
48975;SDS011;34791;52.752;8.346;2023-03-04T04:53:49;11.83;;;1.43;;
48975;SDS011;34791;52.752;8.346;2023-03-04T04:56:15;9.83;;;1.77;;
48975;SDS011;34791;52.752;8.346;2023-03-04T04:58:43;13.83;;;2.30;;
48975;SDS011;34791;52.752;8.346;2023-03-04T05:01:09;16.90;;;2.20;;
48975;SDS011;34791;52.752;8.346;2023-03-04T05:03:35;11.07;;;2.03;;
48975;SDS011;34791;52.752;8.346;2023-03-04T05:06:03;12.30;;;1.60;;
48975;SDS011;34791;52.752;8.346;2023-03-04T05:08:30;14.53;;;1.90;;
48975;SDS011;34791;52.752;8.346;2023-03-04T05:10:55;13.07;;;2.07;;
48975;SDS011;34791;52.752;8.346;2023-03-04T05:13:21;12.73;;;2.13;;
48975;SDS011;34791;52.752;8.346;2023-03-04T05:15:47;13.43;;;2.00;;
48975;SDS011;34791;52.752;8.346;2023-03-04T05:18:16;8.80;;;2.27;;
48975;SDS011;34791;52.752;8.346;2023-03-04T05:20:41;16.90;;;2.07;;
48975;SDS011;34791;52.752;8.346;2023-03-04T05:23:06;10.13;;;2.67;;
48975;SDS011;34791;52.752;8.346;2023-03-04T05:25:32;10.70;;;1.97;;
48975;SDS011;34791;52.752;8.346;2023-03-04T05:27:57;8.43;;;1.80;;
48975;SDS011;34791;52.752;8.346;2023-03-04T05:30:22;11.17;;;1.73;;
48975;SDS011;34791;52.752;8.346;2023-03-04T05:32:48;17.73;;;2.73;;
48975;SDS011;34791;52.752;8.346;2023-03-04T05:35:13;13.00;;;1.97;;
48975;SDS011;34791;52.752;8.346;2023-03-04T05:37:38;13.87;;;2.40;;
48975;SDS011;34791;52.752;8.346;2023-03-04T05:40:04;15.47;;;3.00;;
48975;SDS011;34791;52.752;8.346;2023-03-04T05:42:30;13.93;;;2.60;;
48975;SDS011;34791;52.752;8.346;2023-03-04T05:44:55;18.63;;;2.30;;
48975;SDS011;34791;52.752;8.346;2023-03-04T05:47:21;15.67;;;2.90;;
48975;SDS011;34791;52.752;8.346;2023-03-04T05:49:46;18.47;;;3.17;;
48975;SDS011;34791;52.752;8.346;2023-03-04T05:52:11;12.80;;;2.47;;
48975;SDS011;34791;52.752;8.346;2023-03-04T05:54:37;18.97;;;3.30;;
48975;SDS011;34791;52.752;8.346;2023-03-04T05:57:02;13.60;;;3.00;;
48975;SDS011;34791;52.752;8.346;2023-03-04T05:59:28;12.00;;;2.60;;
48975;SDS011;34791;52.752;8.346;2023-03-04T06:01:53;16.00;;;2.80;;
48975;SDS011;34791;52.752;8.346;2023-03-04T06:04:18;10.73;;;2.63;;
48975;SDS011;34791;52.752;8.346;2023-03-04T06:06:44;14.37;;;2.90;;
48975;SDS011;34791;52.752;8.346;2023-03-04T06:09:11;16.90;;;2.90;;
48975;SDS011;34791;52.752;8.346;2023-03-04T06:11:37;15.90;;;2.40;;
48975;SDS011;34791;52.752;8.346;2023-03-04T06:14:02;14.43;;;2.60;;
48975;SDS011;34791;52.752;8.346;2023-03-04T06:16:27;15.37;;;3.07;;
48975;SDS011;34791;52.752;8.346;2023-03-04T06:18:53;13.57;;;2.83;;
48975;SDS011;34791;52.752;8.346;2023-03-04T06:21:18;13.70;;;3.23;;
48975;SDS011;34791;52.752;8.346;2023-03-04T06:23:43;13.93;;;2.83;;
48975;SDS011;34791;52.752;8.346;2023-03-04T06:26:09;13.30;;;2.40;;
48975;SDS011;34791;52.752;8.346;2023-03-04T06:28:39;18.93;;;3.37;;
48975;SDS011;34791;52.752;8.346;2023-03-04T06:31:08;10.97;;;2.90;;
48975;SDS011;34791;52.752;8.346;2023-03-04T06:33:33;20.53;;;4.00;;
48975;SDS011;34791;52.752;8.346;2023-03-04T06:35:58;19.07;;;3.23;;
48975;SDS011;34791;52.752;8.346;2023-03-04T06:38:24;11.07;;;2.60;;
48975;SDS011;34791;52.752;8.346;2023-03-04T06:40:50;17.53;;;3.43;;
48975;SDS011;34791;52.752;8.346;2023-03-04T06:43:16;9.20;;;3.20;;
48975;SDS011;34791;52.752;8.346;2023-03-04T06:45:41;12.37;;;3.63;;
48975;SDS011;34791;52.752;8.346;2023-03-04T06:48:07;14.80;;;3.07;;
48975;SDS011;34791;52.752;8.346;2023-03-04T06:50:32;16.17;;;3.40;;
48975;SDS011;34791;52.752;8.346;2023-03-04T06:52:58;12.03;;;3.10;;
48975;SDS011;34791;52.752;8.346;2023-03-04T06:55:23;16.33;;;4.07;;
48975;SDS011;34791;52.752;8.346;2023-03-04T06:57:49;13.17;;;4.30;;
48975;SDS011;34791;52.752;8.346;2023-03-04T07:00:14;13.63;;;3.37;;
48975;SDS011;34791;52.752;8.346;2023-03-04T07:02:40;12.40;;;3.77;;
48975;SDS011;34791;52.752;8.346;2023-03-04T07:05:06;13.03;;;3.40;;
48975;SDS011;34791;52.752;8.346;2023-03-04T07:07:31;19.30;;;3.73;;
48975;SDS011;34791;52.752;8.346;2023-03-04T07:09:57;18.83;;;3.67;;
48975;SDS011;34791;52.752;8.346;2023-03-04T07:12:22;15.63;;;4.20;;
48975;SDS011;34791;52.752;8.346;2023-03-04T07:14:48;18.33;;;4.20;;
48975;SDS011;34791;52.752;8.346;2023-03-04T07:17:13;21.33;;;4.10;;
48975;SDS011;34791;52.752;8.346;2023-03-04T07:19:38;9.30;;;3.20;;
48975;SDS011;34791;52.752;8.346;2023-03-04T07:22:04;10.83;;;3.57;;
48975;SDS011;34791;52.752;8.346;2023-03-04T07:24:30;12.27;;;3.70;;
48975;SDS011;34791;52.752;8.346;2023-03-04T07:26:55;17.50;;;4.13;;
48975;SDS011;34791;52.752;8.346;2023-03-04T07:29:20;14.23;;;3.40;;
48975;SDS011;34791;52.752;8.346;2023-03-04T07:31:46;22.90;;;4.20;;
48975;SDS011;34791;52.752;8.346;2023-03-04T07:34:12;16.27;;;4.00;;
48975;SDS011;34791;52.752;8.346;2023-03-04T07:36:38;17.77;;;3.77;;
48975;SDS011;34791;52.752;8.346;2023-03-04T07:39:04;24.50;;;4.53;;
48975;SDS011;34791;52.752;8.346;2023-03-04T07:41:30;9.47;;;2.87;;
48975;SDS011;34791;52.752;8.346;2023-03-04T07:44:00;10.83;;;3.70;;
48975;SDS011;34791;52.752;8.346;2023-03-04T07:46:26;15.00;;;4.03;;
48975;SDS011;34791;52.752;8.346;2023-03-04T07:48:51;15.90;;;4.30;;
48975;SDS011;34791;52.752;8.346;2023-03-04T07:51:21;9.40;;;4.00;;
48975;SDS011;34791;52.752;8.346;2023-03-04T07:53:49;9.13;;;4.05;;
48975;SDS011;34791;52.752;8.346;2023-03-04T07:56:19;13.93;;;3.90;;
48975;SDS011;34791;52.752;8.346;2023-03-04T07:58:47;9.23;;;3.23;;
48975;SDS011;34791;52.752;8.346;2023-03-04T08:01:14;12.00;;;3.17;;
48975;SDS011;34791;52.752;8.346;2023-03-04T08:03:41;15.27;;;3.53;;
48975;SDS011;34791;52.752;8.346;2023-03-04T08:06:07;17.33;;;3.57;;
48975;SDS011;34791;52.752;8.346;2023-03-04T08:08:35;15.73;;;3.53;;
48975;SDS011;34791;52.752;8.346;2023-03-04T08:11:15;17.53;;;3.30;;
48975;SDS011;34791;52.752;8.346;2023-03-04T08:13:42;9.70;;;3.20;;
48975;SDS011;34791;52.752;8.346;2023-03-04T08:16:09;14.83;;;3.17;;
48975;SDS011;34791;52.752;8.346;2023-03-04T08:18:37;11.17;;;2.70;;
48975;SDS011;34791;52.752;8.346;2023-03-04T08:21:06;15.67;;;3.70;;
48975;SDS011;34791;52.752;8.346;2023-03-04T08:23:33;10.77;;;2.80;;
48975;SDS011;34791;52.752;8.346;2023-03-04T08:25:58;11.87;;;3.27;;
48975;SDS011;34791;52.752;8.346;2023-03-04T08:28:23;9.53;;;3.33;;
48975;SDS011;34791;52.752;8.346;2023-03-04T08:30:52;13.23;;;3.00;;
48975;SDS011;34791;52.752;8.346;2023-03-04T08:33:18;16.67;;;3.20;;
48975;SDS011;34791;52.752;8.346;2023-03-04T08:35:44;17.60;;;3.50;;
48975;SDS011;34791;52.752;8.346;2023-03-04T08:38:09;16.17;;;3.13;;
48975;SDS011;34791;52.752;8.346;2023-03-04T08:40:34;13.80;;;2.73;;
48975;SDS011;34791;52.752;8.346;2023-03-04T08:43:00;19.43;;;3.20;;
48975;SDS011;34791;52.752;8.346;2023-03-04T08:45:26;18.43;;;2.40;;
48975;SDS011;34791;52.752;8.346;2023-03-04T08:47:51;22.40;;;2.80;;
48975;SDS011;34791;52.752;8.346;2023-03-04T08:50:17;19.83;;;2.77;;
48975;SDS011;34791;52.752;8.346;2023-03-04T08:52:42;22.60;;;2.67;;
48975;SDS011;34791;52.752;8.346;2023-03-04T08:55:07;19.03;;;2.70;;
48975;SDS011;34791;52.752;8.346;2023-03-04T08:57:33;11.37;;;1.90;;
48975;SDS011;34791;52.752;8.346;2023-03-04T08:59:58;14.43;;;2.40;;
48975;SDS011;34791;52.752;8.346;2023-03-04T09:02:24;15.33;;;1.90;;
48975;SDS011;34791;52.752;8.346;2023-03-04T09:04:49;14.13;;;2.20;;
48975;SDS011;34791;52.752;8.346;2023-03-04T09:07:15;12.83;;;2.67;;
48975;SDS011;34791;52.752;8.346;2023-03-04T09:09:40;17.90;;;2.77;;
48975;SDS011;34791;52.752;8.346;2023-03-04T09:12:05;12.13;;;2.50;;
48975;SDS011;34791;52.752;8.346;2023-03-04T09:14:31;15.93;;;2.40;;
48975;SDS011;34791;52.752;8.346;2023-03-04T09:16:59;17.03;;;2.70;;
48975;SDS011;34791;52.752;8.346;2023-03-04T09:19:25;15.77;;;2.47;;
48975;SDS011;34791;52.752;8.346;2023-03-04T09:21:51;16.60;;;2.50;;
48975;SDS011;34791;52.752;8.346;2023-03-04T09:24:25;21.53;;;2.30;;
48975;SDS011;34791;52.752;8.346;2023-03-04T09:26:51;17.08;;;2.97;;
48975;SDS011;34791;52.752;8.346;2023-03-04T09:29:17;14.40;;;2.67;;
48975;SDS011;34791;52.752;8.346;2023-03-04T09:31:43;17.63;;;3.10;;
48975;SDS011;34791;52.752;8.346;2023-03-04T09:34:08;11.90;;;1.80;;
48975;SDS011;34791;52.752;8.346;2023-03-04T09:36:34;18.37;;;2.13;;
48975;SDS011;34791;52.752;8.346;2023-03-04T09:38:59;19.30;;;2.17;;
48975;SDS011;34791;52.752;8.346;2023-03-04T09:41:29;18.03;;;2.77;;
48975;SDS011;34791;52.752;8.346;2023-03-04T09:44:11;13.90;;;2.40;;
48975;SDS011;34791;52.752;8.346;2023-03-04T09:46:47;11.32;;;2.10;;
48975;SDS011;34791;52.752;8.346;2023-03-04T09:49:14;20.67;;;2.33;;
48975;SDS011;34791;52.752;8.346;2023-03-04T09:57:52;18.10;;;2.20;;
48975;SDS011;34791;52.752;8.346;2023-03-04T10:00:11;16.60;;;2.70;;
48975;SDS011;34791;52.752;8.346;2023-03-04T10:06:01;15.53;;;2.93;;
48975;SDS011;34791;52.752;8.346;2023-03-04T10:11:31;11.00;;;1.90;;
48975;SDS011;34791;52.752;8.346;2023-03-04T10:14:13;8.93;;;2.03;;
48975;SDS011;34791;52.752;8.346;2023-03-04T10:16:44;13.95;;;2.17;;
48975;SDS011;34791;52.752;8.346;2023-03-04T10:21:42;15.40;;;2.00;;
48975;SDS011;34791;52.752;8.346;2023-03-04T10:26:37;11.27;;;1.47;;
48975;SDS011;34791;52.752;8.346;2023-03-04T10:29:03;10.03;;;1.87;;
48975;SDS011;34791;52.752;8.346;2023-03-04T10:31:37;11.07;;;1.77;;
48975;SDS011;34791;52.752;8.346;2023-03-04T10:34:03;12.25;;;1.80;;
48975;SDS011;34791;52.752;8.346;2023-03-04T10:41:25;18.73;;;2.17;;
48975;SDS011;34791;52.752;8.346;2023-03-04T10:44:12;14.33;;;2.03;;
48975;SDS011;34791;52.752;8.346;2023-03-04T10:46:44;13.93;;;2.10;;
48975;SDS011;34791;52.752;8.346;2023-03-04T10:49:13;23.00;;;2.33;;
48975;SDS011;34791;52.752;8.346;2023-03-04T10:51:41;16.53;;;2.40;;
48975;SDS011;34791;52.752;8.346;2023-03-04T10:54:26;14.40;;;1.87;;
48975;SDS011;34791;52.752;8.346;2023-03-04T11:07:20;18.33;;;3.87;;
48975;SDS011;34791;52.752;8.346;2023-03-04T11:09:50;12.97;;;2.40;;
48975;SDS011;34791;52.752;8.346;2023-03-04T11:12:18;17.13;;;2.60;;
48975;SDS011;34791;52.752;8.346;2023-03-04T11:14:47;13.80;;;2.70;;
48975;SDS011;34791;52.752;8.346;2023-03-04T11:17:27;13.90;;;2.30;;
48975;SDS011;34791;52.752;8.346;2023-03-04T11:20:06;19.23;;;2.90;;
48975;SDS011;34791;52.752;8.346;2023-03-04T11:22:59;15.17;;;2.60;;
48975;SDS011;34791;52.752;8.346;2023-03-04T11:25:34;8.17;;;1.77;;
48975;SDS011;34791;52.752;8.346;2023-03-04T11:28:10;17.97;;;2.57;;
48975;SDS011;34791;52.752;8.346;2023-03-04T11:30:43;12.27;;;1.63;;
48975;SDS011;34791;52.752;8.346;2023-03-04T11:33:20;10.20;;;1.63;;
48975;SDS011;34791;52.752;8.346;2023-03-04T11:36:16;14.90;;;2.37;;
48975;SDS011;34791;52.752;8.346;2023-03-04T11:38:49;13.60;;;3.67;;
48975;SDS011;34791;52.752;8.346;2023-03-04T11:43:59;14.87;;;2.67;;
48975;SDS011;34791;52.752;8.346;2023-03-04T12:05:59;10.80;;;1.87;;
48975;SDS011;34791;52.752;8.346;2023-03-04T12:11:37;12.57;;;2.30;;
48975;SDS011;34791;52.752;8.346;2023-03-04T12:14:10;14.90;;;2.13;;
48975;SDS011;34791;52.752;8.346;2023-03-04T12:29:45;13.33;;;2.07;;
48975;SDS011;34791;52.752;8.346;2023-03-04T12:42:38;8.77;;;1.63;;
48975;SDS011;34791;52.752;8.346;2023-03-04T12:51:44;14.80;;;2.57;;
48975;SDS011;34791;52.752;8.346;2023-03-04T12:57:11;12.17;;;2.90;;
48975;SDS011;34791;52.752;8.346;2023-03-04T13:10:23;9.07;;;1.50;;
48975;SDS011;34791;52.752;8.346;2023-03-04T13:12:53;6.07;;;1.30;;
48975;SDS011;34791;52.752;8.346;2023-03-04T13:20:41;9.60;;;1.47;;
48975;SDS011;34791;52.752;8.346;2023-03-04T13:36:00;15.70;;;2.22;;
48975;SDS011;34791;52.752;8.346;2023-03-04T13:43:42;13.93;;;2.10;;
48975;SDS011;34791;52.752;8.346;2023-03-04T13:48:42;14.47;;;1.80;;
48975;SDS011;34791;52.752;8.346;2023-03-04T13:51:25;11.70;;;2.00;;
48975;SDS011;34791;52.752;8.346;2023-03-04T13:56:26;9.27;;;1.93;;
48975;SDS011;34791;52.752;8.346;2023-03-04T14:04:18;18.65;;;2.47;;
48975;SDS011;34791;52.752;8.346;2023-03-04T14:06:49;13.93;;;1.70;;
48975;SDS011;34791;52.752;8.346;2023-03-04T14:09:22;19.63;;;2.83;;
48975;SDS011;34791;52.752;8.346;2023-03-04T14:11:50;13.60;;;2.70;;
48975;SDS011;34791;52.752;8.346;2023-03-04T14:14:18;19.63;;;2.53;;
48975;SDS011;34791;52.752;8.346;2023-03-04T14:16:50;19.67;;;2.67;;
48975;SDS011;34791;52.752;8.346;2023-03-04T14:19:38;17.90;;;2.17;;
48975;SDS011;34791;52.752;8.346;2023-03-04T14:27:38;18.80;;;2.40;;
48975;SDS011;34791;52.752;8.346;2023-03-04T14:30:05;13.77;;;2.40;;
48975;SDS011;34791;52.752;8.346;2023-03-04T14:32:32;15.70;;;2.43;;
48975;SDS011;34791;52.752;8.346;2023-03-04T14:35:00;20.17;;;2.73;;
48975;SDS011;34791;52.752;8.346;2023-03-04T14:37:33;15.07;;;2.40;;
48975;SDS011;34791;52.752;8.346;2023-03-04T14:40:06;20.20;;;2.90;;
48975;SDS011;34791;52.752;8.346;2023-03-04T14:42:36;11.90;;;2.00;;
48975;SDS011;34791;52.752;8.346;2023-03-04T14:45:05;20.25;;;2.40;;
48975;SDS011;34791;52.752;8.346;2023-03-04T14:47:38;15.90;;;2.70;;
48975;SDS011;34791;52.752;8.346;2023-03-04T14:50:06;16.97;;;2.20;;
48975;SDS011;34791;52.752;8.346;2023-03-04T14:52:37;13.23;;;2.13;;
48975;SDS011;34791;52.752;8.346;2023-03-04T14:55:19;16.33;;;2.67;;
48975;SDS011;34791;52.752;8.346;2023-03-04T14:58:04;18.57;;;2.97;;
48975;SDS011;34791;52.752;8.346;2023-03-04T15:00:42;18.03;;;2.60;;
48975;SDS011;34791;52.752;8.346;2023-03-04T15:03:23;14.60;;;3.17;;
48975;SDS011;34791;52.752;8.346;2023-03-04T15:05:52;13.20;;;2.90;;
48975;SDS011;34791;52.752;8.346;2023-03-04T15:08:27;10.97;;;2.17;;
48975;SDS011;34791;52.752;8.346;2023-03-04T15:10:58;15.37;;;3.30;;
48975;SDS011;34791;52.752;8.346;2023-03-04T15:13:44;16.60;;;2.53;;
48975;SDS011;34791;52.752;8.346;2023-03-04T15:16:15;13.97;;;2.70;;
48975;SDS011;34791;52.752;8.346;2023-03-04T15:18:55;16.47;;;2.63;;
48975;SDS011;34791;52.752;8.346;2023-03-04T15:21:31;11.40;;;2.10;;
48975;SDS011;34791;52.752;8.346;2023-03-04T15:23:59;14.80;;;2.57;;
48975;SDS011;34791;52.752;8.346;2023-03-04T15:26:27;12.60;;;2.30;;
48975;SDS011;34791;52.752;8.346;2023-03-04T15:28:52;15.00;;;2.30;;
48975;SDS011;34791;52.752;8.346;2023-03-04T15:31:19;11.33;;;2.23;;
48975;SDS011;34791;52.752;8.346;2023-03-04T15:33:46;19.40;;;2.90;;
48975;SDS011;34791;52.752;8.346;2023-03-04T15:36:13;14.87;;;2.40;;
48975;SDS011;34791;52.752;8.346;2023-03-04T15:38:42;39.33;;;2.97;;
48975;SDS011;34791;52.752;8.346;2023-03-04T15:41:11;12.63;;;2.23;;
48975;SDS011;34791;52.752;8.346;2023-03-04T15:43:41;12.97;;;2.20;;
48975;SDS011;34791;52.752;8.346;2023-03-04T15:46:08;9.43;;;1.63;;
48975;SDS011;34791;52.752;8.346;2023-03-04T15:48:35;12.23;;;2.40;;
48975;SDS011;34791;52.752;8.346;2023-03-04T15:51:01;10.20;;;1.97;;
48975;SDS011;34791;52.752;8.346;2023-03-04T15:53:35;12.50;;;1.90;;
48975;SDS011;34791;52.752;8.346;2023-03-04T15:56:11;12.57;;;2.77;;
48975;SDS011;34791;52.752;8.346;2023-03-04T15:58:39;11.00;;;1.87;;
48975;SDS011;34791;52.752;8.346;2023-03-04T16:01:04;19.27;;;2.20;;
48975;SDS011;34791;52.752;8.346;2023-03-04T16:03:30;17.93;;;2.83;;
48975;SDS011;34791;52.752;8.346;2023-03-04T16:05:56;12.37;;;2.47;;
48975;SDS011;34791;52.752;8.346;2023-03-04T16:08:22;12.63;;;2.43;;
48975;SDS011;34791;52.752;8.346;2023-03-04T16:10:51;11.77;;;1.90;;
48975;SDS011;34791;52.752;8.346;2023-03-04T16:13:19;13.40;;;1.90;;
48975;SDS011;34791;52.752;8.346;2023-03-04T16:15:46;11.00;;;1.90;;
48975;SDS011;34791;52.752;8.346;2023-03-04T16:18:12;10.17;;;1.90;;
48975;SDS011;34791;52.752;8.346;2023-03-04T16:20:39;11.33;;;1.90;;
48975;SDS011;34791;52.752;8.346;2023-03-04T16:23:18;9.60;;;1.87;;
48975;SDS011;34791;52.752;8.346;2023-03-04T16:25:46;13.40;;;2.80;;
48975;SDS011;34791;52.752;8.346;2023-03-04T16:28:13;11.83;;;2.10;;
48975;SDS011;34791;52.752;8.346;2023-03-04T16:30:39;12.00;;;2.13;;
48975;SDS011;34791;52.752;8.346;2023-03-04T16:33:06;18.33;;;2.60;;
48975;SDS011;34791;52.752;8.346;2023-03-04T16:35:31;20.60;;;4.63;;
48975;SDS011;34791;52.752;8.346;2023-03-04T16:38:00;11.33;;;2.30;;
48975;SDS011;34791;52.752;8.346;2023-03-04T16:40:26;13.17;;;2.23;;
48975;SDS011;34791;52.752;8.346;2023-03-04T16:42:54;15.20;;;2.30;;
48975;SDS011;34791;52.752;8.346;2023-03-04T16:45:23;13.03;;;1.87;;
48975;SDS011;34791;52.752;8.346;2023-03-04T16:47:51;19.00;;;2.25;;
48975;SDS011;34791;52.752;8.346;2023-03-04T16:50:18;12.07;;;2.00;;
48975;SDS011;34791;52.752;8.346;2023-03-04T16:52:46;10.50;;;2.00;;
48975;SDS011;34791;52.752;8.346;2023-03-04T16:55:17;11.83;;;2.00;;
48975;SDS011;34791;52.752;8.346;2023-03-04T16:57:45;10.63;;;1.58;;
48975;SDS011;34791;52.752;8.346;2023-03-04T17:00:11;14.20;;;2.20;;
48975;SDS011;34791;52.752;8.346;2023-03-04T17:02:37;12.30;;;2.13;;
48975;SDS011;34791;52.752;8.346;2023-03-04T17:05:03;8.63;;;1.80;;
48975;SDS011;34791;52.752;8.346;2023-03-04T17:07:28;8.13;;;1.80;;
48975;SDS011;34791;52.752;8.346;2023-03-04T17:09:54;11.30;;;2.10;;